Raccoon Bend, Texas
Current Conditions -  °F | °C
As of 8:35 AM on Thursday 29 Jan 2015 (Local Time) from K11R Reporting Station
Overcast Overcast  
Wind Chill: 63°   Ceiling: 700
Heat Index: 63°   Visibility: 10mi
Dew Point: 61°   Wind: 3mph
Humidity: 93%   Direction: 240°WSW
Pressure: 30.24"   Gusts: NA
Location:  29.9944°N, 96.2595°W
Report Text: K11R 291435Z AUTO 24003KT 10SM OVC007 17/16 A3024 RMK AO2 T01730161
Loading
Personal Weather Stations






























Interactive Weather Map New forecast layout! Learn more

10-Day Weather Forecast

Advertisements
Track Severe Weather on mobile